createdAt,value
2023-03-17T00:00:59.331Z,4.27
2023-03-17T00:02:01.283Z,4.26
2023-03-17T00:03:03.278Z,4.26
2023-03-17T00:04:05.911Z,4.26
2023-03-17T00:05:16.012Z,4.26
2023-03-17T00:06:29.546Z,4.27
2023-03-17T00:07:32.002Z,4.29
2023-03-17T00:08:35.966Z,4.31
2023-03-17T00:09:38.354Z,4.35
2023-03-17T00:10:40.317Z,4.36
2023-03-17T00:11:43.258Z,4.35
2023-03-17T00:12:45.745Z,4.34
2023-03-17T00:13:48.840Z,4.34
2023-03-17T00:14:50.712Z,4.34
2023-03-17T00:16:00.221Z,4.34
2023-03-17T00:17:02.308Z,4.33
2023-03-17T00:18:04.685Z,4.32
2023-03-17T00:19:06.562Z,4.31
2023-03-17T00:20:15.301Z,4.31
2023-03-17T00:21:28.645Z,4.30
2023-03-17T00:22:30.652Z,4.31
2023-03-17T00:23:32.535Z,4.31
2023-03-17T00:24:34.367Z,4.32
2023-03-17T00:25:36.802Z,4.33
2023-03-17T00:26:38.743Z,4.35
2023-03-17T00:27:40.558Z,4.36
2023-03-17T00:28:42.922Z,4.38
2023-03-17T00:29:44.828Z,4.39
2023-03-17T00:30:48.536Z,4.40
2023-03-17T00:31:51.222Z,4.41
2023-03-17T00:32:57.571Z,4.41
2023-03-17T00:34:00.562Z,4.42
2023-03-17T00:35:05.197Z,4.42
2023-03-17T00:36:16.632Z,4.41
2023-03-17T00:37:18.472Z,4.39
2023-03-17T00:38:21.855Z,4.38
2023-03-17T00:39:25.494Z,4.37
2023-03-17T00:40:31.069Z,4.37
2023-03-17T00:41:33.599Z,4.35
2023-03-17T00:42:35.471Z,4.32
2023-03-17T00:43:37.341Z,4.30
2023-03-17T00:44:39.309Z,4.28
2023-03-17T00:45:41.789Z,4.28
2023-03-17T00:46:44.778Z,4.26
2023-03-17T00:47:47.219Z,4.24
2023-03-17T00:48:49.236Z,4.22
2023-03-17T00:49:51.124Z,4.21
2023-03-17T00:50:53.045Z,4.20
2023-03-17T00:51:55.053Z,4.20
2023-03-17T00:52:58.193Z,4.20
2023-03-17T00:54:00.119Z,4.19
2023-03-17T00:55:02.271Z,4.19
2023-03-17T00:56:05.547Z,4.18
2023-03-17T00:57:10.076Z,4.17
2023-03-17T00:58:25.383Z,4.17
2023-03-17T00:59:30.095Z,4.17
2023-03-17T01:00:32.725Z,4.16
2023-03-17T01:01:34.926Z,4.16
2023-03-17T01:02:36.899Z,4.16
2023-03-17T01:03:39.140Z,4.16
2023-03-17T01:04:47.635Z,4.16
2023-03-17T01:05:54.205Z,4.17
2023-03-17T01:06:58.541Z,4.19
2023-03-17T01:08:00.522Z,4.20
2023-03-17T01:09:03.881Z,4.20
2023-03-17T01:10:18.039Z,4.20
2023-03-17T01:11:20.611Z,4.21
2023-03-17T01:12:22.521Z,4.21
2023-03-17T01:13:24.287Z,4.22
2023-03-17T01:14:26.215Z,4.23
2023-03-17T01:15:31.632Z,4.24
2023-03-17T01:16:33.915Z,4.24
2023-03-17T01:17:37.677Z,4.24
2023-03-17T01:18:40.021Z,4.23
2023-03-17T01:19:42.558Z,4.23
2023-03-17T01:20:44.812Z,4.23
2023-03-17T01:21:48.110Z,4.21
2023-03-17T01:22:50.808Z,4.20
2023-03-17T01:23:53.559Z,4.18
2023-03-17T01:24:55.397Z,4.17
2023-03-17T01:25:57.587Z,4.15
2023-03-17T01:26:59.511Z,4.13
2023-03-17T01:28:01.498Z,4.12
2023-03-17T01:29:04.878Z,4.11
2023-03-17T01:30:10.373Z,4.09
2023-03-17T01:31:12.696Z,4.07
2023-03-17T01:32:14.531Z,4.07
2023-03-17T01:33:16.399Z,4.06
2023-03-17T01:34:18.310Z,4.06
2023-03-17T01:35:20.459Z,4.07
2023-03-17T01:36:22.756Z,4.09
2023-03-17T01:37:24.801Z,4.10
2023-03-17T01:38:26.686Z,4.12
2023-03-17T01:39:28.630Z,4.14
2023-03-17T01:40:39.041Z,4.16
2023-03-17T01:41:40.883Z,4.18
2023-03-17T01:42:48.125Z,4.20
2023-03-17T01:43:49.969Z,4.21
2023-03-17T01:45:05.654Z,4.23
2023-03-17T01:46:16.428Z,4.25
2023-03-17T01:47:18.971Z,4.26
2023-03-17T01:48:21.958Z,4.27
2023-03-17T01:49:38.168Z,4.28
2023-03-17T01:50:41.148Z,4.28
2023-03-17T01:51:58.746Z,4.28
2023-03-17T01:53:00.621Z,4.28
2023-03-17T01:54:08.434Z,4.28
2023-03-17T01:55:16.082Z,4.29
2023-03-17T01:56:19.283Z,4.28
2023-03-17T01:57:33.162Z,4.28
2023-03-17T01:58:35.477Z,4.27
2023-03-17T01:59:42.452Z,4.27
2023-03-17T02:00:44.343Z,4.27
2023-03-17T02:01:49.546Z,4.28
2023-03-17T02:02:55.446Z,4.30
2023-03-17T02:03:57.335Z,4.30
2023-03-17T02:04:59.354Z,4.30
2023-03-17T02:06:02.276Z,4.27
2023-03-17T02:07:05.140Z,4.25
2023-03-17T02:08:15.213Z,4.23
2023-03-17T02:09:17.352Z,4.19
2023-03-17T02:10:21.192Z,4.16
2023-03-17T02:11:23.982Z,4.14
2023-03-17T02:12:28.992Z,4.12
2023-03-17T02:13:32.026Z,4.10
2023-03-17T02:14:34.188Z,4.08
2023-03-17T02:15:39.210Z,4.06
2023-03-17T02:16:41.101Z,4.05
2023-03-17T02:17:43.672Z,4.03
2023-03-17T02:18:45.578Z,4.03
2023-03-17T02:19:48.215Z,4.02
2023-03-17T02:21:11.325Z,4.02
2023-03-17T02:22:13.412Z,4.02
2023-03-17T02:23:18.104Z,4.00
2023-03-17T02:24:37.203Z,3.97
2023-03-17T02:25:39.936Z,3.96
2023-03-17T02:26:43.811Z,3.96
2023-03-17T02:27:48.266Z,3.96
2023-03-17T02:28:50.431Z,3.96
2023-03-17T02:29:52.321Z,3.96
2023-03-17T02:30:54.355Z,3.94
2023-03-17T02:31:56.269Z,3.93
2023-03-17T02:32:58.047Z,3.93
2023-03-17T02:33:59.973Z,3.92
2023-03-17T02:35:01.913Z,3.90
2023-03-17T02:36:04.141Z,3.88
2023-03-17T02:37:07.788Z,3.86
2023-03-17T02:38:09.640Z,3.85
2023-03-17T02:39:11.515Z,3.83
2023-03-17T02:40:15.002Z,3.82
2023-03-17T02:41:17.011Z,3.80
2023-03-17T02:42:18.792Z,3.78
2023-03-17T02:43:20.777Z,3.77
2023-03-17T02:44:22.539Z,3.73
2023-03-17T02:45:24.451Z,3.68
2023-03-17T02:46:27.179Z,3.64
2023-03-17T02:47:29.269Z,3.61
2023-03-17T02:48:32.021Z,3.57
2023-03-17T02:49:35.261Z,3.55
2023-03-17T02:50:37.498Z,3.53
2023-03-17T02:51:39.344Z,3.49
2023-03-17T02:52:41.461Z,3.48
2023-03-17T02:53:43.358Z,3.45
2023-03-17T02:54:45.470Z,3.43
2023-03-17T02:55:47.349Z,3.40
2023-03-17T02:56:49.455Z,3.37
2023-03-17T02:57:51.615Z,3.34
2023-03-17T02:58:53.482Z,3.32
2023-03-17T02:59:55.480Z,3.30
2023-03-17T03:00:57.856Z,3.28
2023-03-17T03:01:59.654Z,3.26
2023-03-17T03:03:01.565Z,3.25
2023-03-17T03:04:04.097Z,3.22
2023-03-17T03:05:07.384Z,3.20
2023-03-17T03:06:09.486Z,3.18
2023-03-17T03:07:12.032Z,3.15
2023-03-17T03:08:13.929Z,3.14
2023-03-17T03:09:17.785Z,3.12
2023-03-17T03:10:19.700Z,3.12
2023-03-17T03:11:21.619Z,3.11
2023-03-17T03:12:23.436Z,3.10
2023-03-17T03:13:25.269Z,3.11
2023-03-17T03:14:27.170Z,3.13
2023-03-17T03:15:29.005Z,3.14
2023-03-17T03:16:30.934Z,3.14
2023-03-17T03:17:33.426Z,3.13
2023-03-17T03:18:37.188Z,3.11
2023-03-17T03:19:39.401Z,3.11
2023-03-17T03:20:44.043Z,3.13
2023-03-17T03:21:46.316Z,3.14
2023-03-17T03:22:48.947Z,3.14
2023-03-17T03:23:51.089Z,3.13
2023-03-17T03:24:52.942Z,3.12
2023-03-17T03:25:54.870Z,3.11
2023-03-17T03:26:57.224Z,3.11
2023-03-17T03:27:59.081Z,3.11
2023-03-17T03:29:01.413Z,3.11
2023-03-17T03:30:04.292Z,3.11
2023-03-17T03:31:06.385Z,3.12
2023-03-17T03:32:08.623Z,3.11
2023-03-17T03:33:13.167Z,3.09
2023-03-17T03:34:15.382Z,3.07
2023-03-17T03:35:17.240Z,3.05
2023-03-17T03:36:19.662Z,3.05
2023-03-17T03:37:21.467Z,3.03
2023-03-17T03:38:23.343Z,3.00
2023-03-17T03:39:25.245Z,2.97
2023-03-17T03:40:27.292Z,2.95
2023-03-17T03:41:29.093Z,2.94
2023-03-17T03:42:31.070Z,2.94
2023-03-17T03:43:32.898Z,2.94
2023-03-17T03:44:34.720Z,2.93
2023-03-17T03:45:37.014Z,2.92
2023-03-17T03:46:38.935Z,2.91
2023-03-17T03:47:40.912Z,2.90
2023-03-17T03:48:42.750Z,2.88
2023-03-17T03:49:44.644Z,2.87
2023-03-17T03:50:46.614Z,2.86
2023-03-17T03:51:48.470Z,2.85
2023-03-17T03:52:50.424Z,2.85
2023-03-17T03:53:52.244Z,2.84
2023-03-17T03:54:54.173Z,2.83
2023-03-17T03:55:56.486Z,2.82
2023-03-17T03:56:58.303Z,2.82
2023-03-17T03:58:00.437Z,2.82
2023-03-17T03:59:02.273Z,2.82
2023-03-17T04:00:07.481Z,2.82
2023-03-17T04:01:10.134Z,2.81
2023-03-17T04:02:12.284Z,2.81
2023-03-17T04:03:14.400Z,2.82
2023-03-17T04:04:16.470Z,2.82
2023-03-17T04:05:18.842Z,2.82
2023-03-17T04:06:20.713Z,2.82
2023-03-17T04:07:23.076Z,2.82
2023-03-17T04:08:25.676Z,2.81
2023-03-17T04:09:27.533Z,2.81
2023-03-17T04:10:29.686Z,2.80
2023-03-17T04:11:32.281Z,2.80
2023-03-17T04:12:34.214Z,2.79
2023-03-17T04:13:36.112Z,2.78
2023-03-17T04:14:37.933Z,2.77
2023-03-17T04:15:39.786Z,2.76
2023-03-17T04:16:43.512Z,2.76
2023-03-17T04:17:46.519Z,2.76
2023-03-17T04:18:48.534Z,2.75
2023-03-17T04:19:50.692Z,2.74
2023-03-17T04:20:52.597Z,2.74
2023-03-17T04:21:54.879Z,2.74
2023-03-17T04:22:57.092Z,2.73
2023-03-17T04:23:59.203Z,2.73
2023-03-17T04:25:01.028Z,2.72
2023-03-17T04:26:04.145Z,2.71
2023-03-17T04:27:06.374Z,2.71
2023-03-17T04:28:09.090Z,2.71
2023-03-17T04:29:15.596Z,2.70
2023-03-17T04:30:17.790Z,2.70
2023-03-17T04:31:19.720Z,2.70
2023-03-17T04:32:21.916Z,2.69
2023-03-17T04:33:23.749Z,2.70
2023-03-17T04:34:27.441Z,2.70
2023-03-17T04:35:29.487Z,2.70
2023-03-17T04:36:31.827Z,2.69
2023-03-17T04:37:34.767Z,2.68
2023-03-17T04:38:36.842Z,2.68
2023-03-17T04:39:38.942Z,2.68
2023-03-17T04:40:40.930Z,2.67
2023-03-17T04:41:42.918Z,2.67
2023-03-17T04:42:44.735Z,2.67
2023-03-17T04:43:46.808Z,2.66
2023-03-17T04:44:48.672Z,2.65
2023-03-17T04:45:50.892Z,2.64
2023-03-17T04:46:52.810Z,2.64
2023-03-17T04:47:54.751Z,2.63
2023-03-17T04:48:56.776Z,2.63
2023-03-17T04:49:58.850Z,2.63
2023-03-17T04:51:00.685Z,2.62
2023-03-17T04:52:03.947Z,2.61
2023-03-17T04:53:05.807Z,2.61
2023-03-17T04:54:08.303Z,2.60
2023-03-17T04:55:10.417Z,2.59
2023-03-17T04:56:12.355Z,2.58
2023-03-17T04:57:14.363Z,2.58
2023-03-17T04:58:30.121Z,2.58
2023-03-17T04:59:32.531Z,2.57
2023-03-17T05:00:38.828Z,2.57
2023-03-17T05:01:41.170Z,2.57
2023-03-17T05:02:43.086Z,2.56
2023-03-17T05:03:45.494Z,2.55
2023-03-17T05:04:47.824Z,2.55
2023-03-17T05:05:50.771Z,2.54
2023-03-17T05:06:53.038Z,2.53
2023-03-17T05:07:55.043Z,2.50
2023-03-17T05:08:56.988Z,2.41
2023-03-17T05:09:58.926Z,2.40
2023-03-17T05:11:01.264Z,2.41
2023-03-17T05:12:03.095Z,2.41
2023-03-17T05:13:04.832Z,2.42
2023-03-17T05:14:06.722Z,2.43
2023-03-17T05:15:08.551Z,2.43
2023-03-17T05:16:11.088Z,2.44
2023-03-17T05:17:13.016Z,2.44
2023-03-17T05:18:16.961Z,2.44
2023-03-17T05:19:19.071Z,2.44
2023-03-17T05:20:21.278Z,2.44
2023-03-17T05:21:23.269Z,2.45
2023-03-17T05:22:25.506Z,2.46
2023-03-17T05:23:27.326Z,2.48
2023-03-17T05:24:29.157Z,2.50
2023-03-17T05:25:30.942Z,2.50
2023-03-17T05:26:33.200Z,2.49
2023-03-17T05:27:35.102Z,2.50
2023-03-17T05:28:37.301Z,2.50
2023-03-17T05:29:39.563Z,2.50
2023-03-17T05:30:42.855Z,2.50
2023-03-17T05:31:45.333Z,2.49
2023-03-17T05:32:47.221Z,2.49
2023-03-17T05:33:49.353Z,2.50
2023-03-17T05:34:52.011Z,2.51
2023-03-17T05:35:53.919Z,2.51
2023-03-17T05:36:56.020Z,2.51
2023-03-17T05:37:57.985Z,2.52
2023-03-17T05:38:59.889Z,2.53
2023-03-17T05:40:02.238Z,2.54
2023-03-17T05:41:04.167Z,2.54
2023-03-17T05:42:06.289Z,2.55
2023-03-17T05:43:08.069Z,2.56
2023-03-17T05:44:10.418Z,2.56
2023-03-17T05:45:12.405Z,2.57
2023-03-17T05:46:14.619Z,2.58
2023-03-17T05:47:16.589Z,2.59
2023-03-17T05:48:18.513Z,2.61
2023-03-17T05:49:20.482Z,2.64
2023-03-17T05:50:22.956Z,2.65
2023-03-17T05:51:24.896Z,2.66
2023-03-17T05:52:28.116Z,2.67
2023-03-17T05:53:29.943Z,2.68
2023-03-17T05:54:31.870Z,2.69
2023-03-17T05:55:33.670Z,2.72
2023-03-17T05:56:35.968Z,2.74
2023-03-17T05:57:37.719Z,2.77
2023-03-17T05:58:39.627Z,2.79
2023-03-17T05:59:42.662Z,2.82
2023-03-17T06:00:45.261Z,2.86
2023-03-17T06:01:47.159Z,2.90
2023-03-17T06:02:49.153Z,2.93
2023-03-17T06:03:51.054Z,2.97
2023-03-17T06:04:52.920Z,3.00
2023-03-17T06:05:54.834Z,3.03
2023-03-17T06:07:09.616Z,3.05
2023-03-17T06:08:11.824Z,3.08
2023-03-17T06:09:15.073Z,3.11
2023-03-17T06:10:17.271Z,3.14
2023-03-17T06:11:22.358Z,3.18
2023-03-17T06:12:24.371Z,3.20
2023-03-17T06:13:26.294Z,3.22
2023-03-17T06:14:28.076Z,3.25
2023-03-17T06:15:30.657Z,3.29
2023-03-17T06:16:33.295Z,3.33
2023-03-17T06:17:36.040Z,3.37
2023-03-17T06:18:38.136Z,3.41
2023-03-17T06:19:39.996Z,3.47
2023-03-17T06:20:41.867Z,3.51
2023-03-17T06:21:43.722Z,3.56
2023-03-17T06:23:02.323Z,3.61
2023-03-17T06:24:06.063Z,3.65
2023-03-17T06:25:08.528Z,3.67
2023-03-17T06:26:10.348Z,3.71
2023-03-17T06:27:14.314Z,3.75
2023-03-17T06:28:17.011Z,3.79
2023-03-17T06:29:19.370Z,3.83
2023-03-17T06:30:22.540Z,3.87
2023-03-17T06:31:24.503Z,3.93
2023-03-17T06:32:27.120Z,3.97
2023-03-17T06:33:28.947Z,4.01
2023-03-17T06:34:31.131Z,4.04
2023-03-17T06:35:33.945Z,4.08
2023-03-17T06:36:38.562Z,4.12
2023-03-17T06:37:40.490Z,4.18
2023-03-17T06:38:42.439Z,4.24
2023-03-17T06:39:45.283Z,4.28
2023-03-17T06:40:47.416Z,4.31
2023-03-17T06:41:49.481Z,4.35
2023-03-17T06:42:51.604Z,4.39
2023-03-17T06:43:53.598Z,4.45
2023-03-17T06:44:55.666Z,4.50
2023-03-17T06:45:57.589Z,4.54
2023-03-17T06:46:59.466Z,4.59
2023-03-17T06:48:02.303Z,4.63
2023-03-17T06:49:04.376Z,4.70
2023-03-17T06:50:11.444Z,4.75
2023-03-17T06:51:13.298Z,4.79
2023-03-17T06:52:15.197Z,4.84
2023-03-17T06:53:17.029Z,4.91
2023-03-17T06:54:20.655Z,4.97
2023-03-17T06:55:22.521Z,5.01
2023-03-17T06:56:30.333Z,5.06
2023-03-17T06:57:33.427Z,5.11
2023-03-17T06:58:35.353Z,5.15
2023-03-17T06:59:37.346Z,5.20
2023-03-17T07:00:40.073Z,5.24
2023-03-17T07:01:42.318Z,5.28
2023-03-17T07:02:44.348Z,5.42
2023-03-17T07:03:46.642Z,5.56
2023-03-17T07:04:49.102Z,5.65
2023-03-17T07:05:51.300Z,5.71
2023-03-17T07:06:53.143Z,5.75
2023-03-17T07:07:55.225Z,5.79
2023-03-17T07:08:57.703Z,5.82
2023-03-17T07:09:59.861Z,5.85
2023-03-17T07:11:01.871Z,5.88
2023-03-17T07:12:05.102Z,5.92
2023-03-17T07:13:08.550Z,5.95
2023-03-17T07:14:10.919Z,5.99
2023-03-17T07:15:12.901Z,6.02
2023-03-17T07:16:16.740Z,6.05
2023-03-17T07:17:19.714Z,6.07
2023-03-17T07:18:21.466Z,6.10
2023-03-17T07:19:23.369Z,6.12
2023-03-17T07:20:25.150Z,6.15
2023-03-17T07:21:27.286Z,6.17
2023-03-17T07:22:29.256Z,6.18
2023-03-17T07:23:31.408Z,6.20
2023-03-17T07:24:34.050Z,6.22
2023-03-17T07:25:36.958Z,6.25
2023-03-17T07:26:38.812Z,6.30
2023-03-17T07:27:41.632Z,6.31
2023-03-17T07:28:43.576Z,6.35
2023-03-17T07:29:45.713Z,6.40
2023-03-17T07:30:51.110Z,6.45
2023-03-17T07:31:53.922Z,6.52
2023-03-17T07:32:57.497Z,6.60
2023-03-17T07:34:00.002Z,6.65
2023-03-17T07:35:01.918Z,6.68
2023-03-17T07:36:07.222Z,6.71
2023-03-17T07:37:10.422Z,6.74
2023-03-17T07:38:12.418Z,6.79
2023-03-17T07:39:16.645Z,6.84
2023-03-17T07:40:18.882Z,6.89
2023-03-17T07:41:22.018Z,6.93
2023-03-17T07:42:23.817Z,6.95
2023-03-17T07:43:26.113Z,6.99
2023-03-17T07:44:28.876Z,7.03
2023-03-17T07:45:31.574Z,7.08
2023-03-17T07:46:33.712Z,7.13
2023-03-17T07:47:35.930Z,7.17
2023-03-17T07:48:40.953Z,7.21
2023-03-17T07:49:43.158Z,7.26
2023-03-17T07:50:45.640Z,7.30
2023-03-17T07:51:47.712Z,7.32
2023-03-17T07:52:49.589Z,7.36
2023-03-17T07:53:51.750Z,7.44
2023-03-17T07:54:54.599Z,7.51
2023-03-17T07:55:56.814Z,7.58
2023-03-17T07:56:59.257Z,7.64
2023-03-17T07:58:01.354Z,7.70
2023-03-17T07:59:03.469Z,7.74
2023-03-17T08:00:10.379Z,7.81
2023-03-17T08:01:12.399Z,7.87
2023-03-17T08:02:16.484Z,7.92
2023-03-17T08:03:19.349Z,7.99
2023-03-17T08:04:21.246Z,8.03
2023-03-17T08:05:24.225Z,8.07
2023-03-17T08:06:26.561Z,8.11
2023-03-17T08:07:33.354Z,8.13
2023-03-17T08:08:36.015Z,8.17
2023-03-17T08:09:38.449Z,8.21
2023-03-17T08:10:40.306Z,8.23
2023-03-17T08:11:42.140Z,8.26
2023-03-17T08:12:44.420Z,8.29
2023-03-17T08:13:46.782Z,8.32
2023-03-17T08:14:48.811Z,8.34
2023-03-17T08:15:52.469Z,8.37
2023-03-17T08:16:54.840Z,8.39
2023-03-17T08:17:57.355Z,8.41
2023-03-17T08:18:59.619Z,8.42
2023-03-17T08:20:01.477Z,8.43
2023-03-17T08:21:03.891Z,8.44
2023-03-17T08:22:05.735Z,8.46
2023-03-17T08:23:07.621Z,8.47
2023-03-17T08:24:09.988Z,8.50
2023-03-17T08:25:12.731Z,8.55
2023-03-17T08:26:14.889Z,8.58
2023-03-17T08:27:18.660Z,8.63
2023-03-17T08:28:21.056Z,8.64
2023-03-17T08:29:23.814Z,8.64
2023-03-17T08:30:26.024Z,8.65
2023-03-17T08:31:28.090Z,8.68
2023-03-17T08:32:30.051Z,8.71
2023-03-17T08:33:31.989Z,8.75
2023-03-17T08:34:33.806Z,8.79
2023-03-17T08:35:37.310Z,8.83
2023-03-17T08:36:39.858Z,8.87
2023-03-17T08:37:46.306Z,8.90
2023-03-17T08:38:48.842Z,8.93
2023-03-17T08:39:51.168Z,8.97
2023-03-17T08:40:52.992Z,9.01
2023-03-17T08:41:55.192Z,9.05
2023-03-17T08:42:57.568Z,9.11
2023-03-17T08:44:00.245Z,9.17
2023-03-17T08:45:02.161Z,9.20
2023-03-17T08:46:20.405Z,9.24
2023-03-17T08:47:23.541Z,9.29
2023-03-17T08:48:25.569Z,9.31
2023-03-17T08:49:27.709Z,9.32
2023-03-17T08:50:31.097Z,9.33
2023-03-17T08:51:37.288Z,9.36
2023-03-17T08:52:39.539Z,9.50
2023-03-17T08:53:41.896Z,9.55
2023-03-17T08:54:43.753Z,9.61
2023-03-17T08:55:45.510Z,9.65
2023-03-17T08:56:50.513Z,9.71
2023-03-17T08:57:52.975Z,9.74
2023-03-17T08:58:55.221Z,9.78
2023-03-17T08:59:57.649Z,9.83
2023-03-17T09:01:01.074Z,9.91
2023-03-17T09:02:03.599Z,9.97
2023-03-17T09:03:05.963Z,10.00
2023-03-17T09:04:08.007Z,10.03
2023-03-17T09:05:12.741Z,10.08
2023-03-17T09:06:14.532Z,10.12
2023-03-17T09:07:17.099Z,10.16
2023-03-17T09:08:19.356Z,10.20
2023-03-17T09:09:21.776Z,10.21
2023-03-17T09:10:23.765Z,10.21
2023-03-17T09:11:28.201Z,10.22
2023-03-17T09:12:30.670Z,10.22
2023-03-17T09:13:35.014Z,10.23
2023-03-17T09:14:43.358Z,10.26
2023-03-17T09:15:46.293Z,10.32
2023-03-17T09:16:48.826Z,10.34
2023-03-17T09:17:50.947Z,10.37
2023-03-17T09:18:53.253Z,10.41
2023-03-17T09:19:55.337Z,10.43
2023-03-17T09:20:58.012Z,10.47
2023-03-17T09:22:00.635Z,10.49
2023-03-17T09:23:07.996Z,10.50
2023-03-17T09:24:10.430Z,10.54
2023-03-17T09:25:14.571Z,10.57
2023-03-17T09:26:16.482Z,10.59
2023-03-17T09:27:18.357Z,10.62
2023-03-17T09:28:20.289Z,10.67
2023-03-17T09:29:22.105Z,10.70
2023-03-17T09:30:27.088Z,10.73
2023-03-17T09:31:29.386Z,10.73
2023-03-17T09:32:31.375Z,10.74
2023-03-17T09:33:33.322Z,10.76
2023-03-17T09:34:35.874Z,10.79
2023-03-17T09:35:40.009Z,10.83
2023-03-17T09:36:42.647Z,10.86
2023-03-17T09:37:44.590Z,10.86
2023-03-17T09:38:47.273Z,10.86
2023-03-17T09:39:49.213Z,10.86
2023-03-17T09:41:02.621Z,10.88
2023-03-17T09:42:33.390Z,10.91
2023-03-17T09:43:38.232Z,11.03
2023-03-17T09:44:57.599Z,11.07
2023-03-17T09:46:11.421Z,11.12
2023-03-17T09:47:47.875Z,11.22
2023-03-17T09:49:09.074Z,11.48
2023-03-17T09:50:16.209Z,11.55
2023-03-17T09:51:19.621Z,11.57
2023-03-17T09:52:29.950Z,11.56
2023-03-17T09:53:46.249Z,11.53
2023-03-17T09:54:49.667Z,11.52
2023-03-17T09:55:58.912Z,11.53
2023-03-17T09:57:10.881Z,11.52
2023-03-17T09:58:12.854Z,11.55
2023-03-17T09:59:30.783Z,11.57
2023-03-17T10:00:32.975Z,11.55
2023-03-17T10:01:36.537Z,11.55
2023-03-17T10:02:38.658Z,11.57
2023-03-17T10:03:40.523Z,11.58
2023-03-17T10:04:44.953Z,11.59
2023-03-17T10:05:46.991Z,11.60
2023-03-17T10:06:50.136Z,11.61
2023-03-17T10:08:04.537Z,11.61
2023-03-17T10:09:32.016Z,11.59
2023-03-17T10:10:51.143Z,11.55
2023-03-17T10:12:21.532Z,11.53
2023-03-17T10:13:42.579Z,11.53
2023-03-17T10:15:25.898Z,11.51
2023-03-17T10:16:38.935Z,11.50
2023-03-17T10:17:42.393Z,11.49
2023-03-17T10:18:50.248Z,11.48
2023-03-17T10:20:04.357Z,11.47
2023-03-17T10:21:09.308Z,11.47
2023-03-17T10:22:29.748Z,11.47
2023-03-17T10:23:34.813Z,11.47
2023-03-17T10:24:40.090Z,11.48
2023-03-17T10:25:42.781Z,11.49
2023-03-17T10:26:49.901Z,11.48
2023-03-17T10:28:05.973Z,11.48
2023-03-17T10:29:16.105Z,11.50
2023-03-17T10:30:21.135Z,11.53
2023-03-17T10:31:30.990Z,11.55
2023-03-17T10:32:38.011Z,11.55
2023-03-17T10:33:40.212Z,11.57
2023-03-17T10:34:42.563Z,11.61
2023-03-17T10:35:45.111Z,11.64
2023-03-17T10:36:51.477Z,11.65
2023-03-17T10:38:08.036Z,11.66
2023-03-17T10:39:19.719Z,11.72
2023-03-17T10:40:26.052Z,11.75
2023-03-17T10:41:30.215Z,11.77
2023-03-17T10:42:35.664Z,11.81
2023-03-17T10:43:50.671Z,11.82
2023-03-17T10:45:02.320Z,11.86
2023-03-17T10:46:18.307Z,11.87
2023-03-17T10:47:24.839Z,11.91
2023-03-17T10:48:26.952Z,11.94
2023-03-17T10:49:36.152Z,11.99
2023-03-17T10:50:41.114Z,12.03
2023-03-17T10:51:46.448Z,12.09
2023-03-17T10:53:13.151Z,12.12
2023-03-17T10:54:19.308Z,12.13
2023-03-17T10:55:24.114Z,12.13
2023-03-17T10:56:36.252Z,12.13
2023-03-17T10:57:38.950Z,12.14
2023-03-17T10:58:49.046Z,12.16
2023-03-17T10:59:53.986Z,12.21
2023-03-17T11:01:00.090Z,12.23
2023-03-17T11:02:07.686Z,12.24
2023-03-17T11:03:15.511Z,12.28
2023-03-17T11:04:29.971Z,12.30
2023-03-17T11:05:32.064Z,12.32
2023-03-17T11:06:39.352Z,12.32
2023-03-17T11:07:41.642Z,12.30
2023-03-17T11:08:56.548Z,12.28
2023-03-17T11:10:02.669Z,12.26
2023-03-17T11:11:07.689Z,12.26
2023-03-17T11:12:30.175Z,12.28
2023-03-17T11:13:32.944Z,12.31
2023-03-17T11:14:35.599Z,12.32
2023-03-17T11:15:48.558Z,12.34
2023-03-17T11:17:29.407Z,12.35
2023-03-17T11:18:36.643Z,12.34
2023-03-17T11:20:13.810Z,12.35
2023-03-17T11:21:30.088Z,12.35
2023-03-17T11:22:43.035Z,12.39
2023-03-17T11:24:13.615Z,12.41
2023-03-17T11:25:19.983Z,12.42
2023-03-17T11:26:27.660Z,12.42
2023-03-17T11:27:33.474Z,12.44
2023-03-17T11:28:41.138Z,12.45
2023-03-17T11:29:55.310Z,12.46
2023-03-17T11:31:18.630Z,12.46
2023-03-17T11:32:46.564Z,12.45
2023-03-17T11:34:03.360Z,12.46
2023-03-17T11:35:28.564Z,12.47
2023-03-17T11:36:49.254Z,12.51
2023-03-17T11:38:20.226Z,12.61
2023-03-17T11:39:44.516Z,12.72
2023-03-17T11:41:04.948Z,12.80
2023-03-17T11:42:31.818Z,12.83
2023-03-17T11:43:45.409Z,12.86
2023-03-17T11:44:47.495Z,12.90
2023-03-17T11:46:19.358Z,12.90
2023-03-17T11:47:48.630Z,12.92
2023-03-17T11:49:12.670Z,12.90
2023-03-17T11:50:33.856Z,12.92
2023-03-17T11:51:49.212Z,12.93
2023-03-17T11:53:02.772Z,12.95
2023-03-17T11:54:42.775Z,12.95
2023-03-17T11:55:50.450Z,12.95
2023-03-17T11:56:55.718Z,12.94
2023-03-17T11:58:10.643Z,12.94
2023-03-17T11:59:38.856Z,12.94
2023-03-17T12:00:50.802Z,12.95
2023-03-17T12:02:05.139Z,12.93
2023-03-17T12:03:22.255Z,12.92
2023-03-17T12:04:34.371Z,12.90
2023-03-17T12:05:37.329Z,12.90
2023-03-17T12:06:48.133Z,12.92
2023-03-17T12:08:03.550Z,12.94
2023-03-17T12:09:15.849Z,12.98
2023-03-17T12:10:28.821Z,13.05
2023-03-17T12:11:36.108Z,13.07
2023-03-17T12:12:43.885Z,13.10
2023-03-17T12:13:56.790Z,13.13
2023-03-17T12:15:00.596Z,13.20
2023-03-17T12:16:14.421Z,13.23
2023-03-17T12:17:21.716Z,13.35
2023-03-17T12:18:34.510Z,13.42
2023-03-17T12:19:52.406Z,13.44
2023-03-17T12:21:04.407Z,13.48
2023-03-17T12:22:13.658Z,13.64
2023-03-17T12:23:30.136Z,13.65
2023-03-17T12:24:43.814Z,13.69
2023-03-17T12:26:12.526Z,13.74
2023-03-17T12:27:27.277Z,13.75
2023-03-17T12:28:36.733Z,13.95
2023-03-17T12:30:14.551Z,14.15
2023-03-17T12:31:22.947Z,14.21
2023-03-17T12:32:32.398Z,14.22
2023-03-17T12:33:43.917Z,14.19
2023-03-17T12:34:57.414Z,14.19
2023-03-17T12:36:01.312Z,14.20
2023-03-17T12:37:03.694Z,14.21
2023-03-17T12:38:14.046Z,14.24
2023-03-17T12:39:21.243Z,14.23
2023-03-17T12:40:37.983Z,14.23
2023-03-17T12:42:05.522Z,14.24
2023-03-17T12:43:19.369Z,14.25
2023-03-17T12:44:54.381Z,14.25
2023-03-17T12:46:03.013Z,14.22
2023-03-17T12:47:21.689Z,14.17
2023-03-17T12:48:34.525Z,14.15
2023-03-17T12:50:17.919Z,14.17
2023-03-17T12:51:44.897Z,14.20
2023-03-17T12:53:14.241Z,14.20
2023-03-17T12:54:25.571Z,14.24
2023-03-17T12:55:32.116Z,14.28
2023-03-17T12:56:34.844Z,14.29
2023-03-17T12:57:44.950Z,14.29
2023-03-17T12:58:52.533Z,14.25
2023-03-17T13:00:29.558Z,14.23
2023-03-17T13:01:44.706Z,14.28
2023-03-17T13:02:51.621Z,14.26
2023-03-17T13:04:17.420Z,14.26
2023-03-17T13:05:30.802Z,14.26
2023-03-17T13:07:04.481Z,14.25
2023-03-17T13:08:10.958Z,14.24
2023-03-17T13:09:38.583Z,14.26
2023-03-17T13:10:43.382Z,14.33
2023-03-17T13:11:48.496Z,14.34
2023-03-17T13:12:50.354Z,14.37
2023-03-17T13:13:55.442Z,14.43
2023-03-17T13:14:58.646Z,14.44
2023-03-17T13:16:04.484Z,14.44
2023-03-17T13:17:19.798Z,14.42
2023-03-17T13:18:27.946Z,14.42
2023-03-17T13:19:34.298Z,14.43
2023-03-17T13:21:00.305Z,14.43
2023-03-17T13:22:05.647Z,14.45
2023-03-17T13:23:13.090Z,14.47
2023-03-17T13:24:18.628Z,14.47
2023-03-17T13:25:55.376Z,14.49
2023-03-17T13:26:59.981Z,14.53
2023-03-17T13:28:10.906Z,14.60
2023-03-17T13:29:32.247Z,14.68
2023-03-17T13:30:36.848Z,14.70
2023-03-17T13:31:39.380Z,14.71
2023-03-17T13:32:41.398Z,14.74
2023-03-17T13:33:46.497Z,14.76
2023-03-17T13:34:58.432Z,14.79
2023-03-17T13:36:26.402Z,14.83
2023-03-17T13:37:47.416Z,14.84
2023-03-17T13:39:19.568Z,14.86
2023-03-17T13:41:00.954Z,14.82
2023-03-17T13:44:15.433Z,14.81
2023-03-17T13:45:34.396Z,14.78
2023-03-17T13:46:36.675Z,14.78
2023-03-17T13:47:43.044Z,14.79
2023-03-17T13:48:45.046Z,14.79
2023-03-17T13:49:50.914Z,14.75
2023-03-17T13:51:25.226Z,14.70
2023-03-17T13:52:33.562Z,14.68
2023-03-17T13:53:49.136Z,14.68
2023-03-17T13:55:01.717Z,14.69
2023-03-17T13:56:23.856Z,14.68
2023-03-17T13:57:36.034Z,14.68
2023-03-17T13:58:59.658Z,14.68
2023-03-17T14:00:22.465Z,14.69
2023-03-17T14:01:24.540Z,14.71
2023-03-17T14:02:30.463Z,14.73
2023-03-17T14:03:43.491Z,14.73
2023-03-17T14:05:01.894Z,14.73
2023-03-17T14:06:06.633Z,14.72
2023-03-17T14:07:16.352Z,14.71
2023-03-17T14:08:27.728Z,14.73
2023-03-17T14:09:29.540Z,14.78
2023-03-17T14:10:33.624Z,14.81
2023-03-17T14:11:38.659Z,14.83
2023-03-17T14:12:52.596Z,14.85
2023-03-17T14:14:03.715Z,14.87
2023-03-17T14:15:20.314Z,14.91
2023-03-17T14:16:30.083Z,14.99
2023-03-17T14:17:55.662Z,14.99
2023-03-17T14:19:21.480Z,14.98
2023-03-17T14:20:26.000Z,15.02
2023-03-17T14:21:33.338Z,15.03
2023-03-17T14:22:45.493Z,15.04
2023-03-17T14:23:59.473Z,15.03
2023-03-17T14:25:01.841Z,15.00
2023-03-17T14:26:04.060Z,14.99
2023-03-17T14:27:14.909Z,14.98
2023-03-17T14:28:20.904Z,14.94
2023-03-17T14:29:29.734Z,14.91
2023-03-17T14:30:33.609Z,14.90
2023-03-17T14:31:35.485Z,14.89